createdAt,value
2023-01-25T00:00:21.979Z,4.44
2023-01-25T00:01:24.684Z,4.4
2023-01-25T00:02:27.535Z,4.38
2023-01-25T00:03:30.427Z,4.37
2023-01-25T00:04:33.142Z,4.36
2023-01-25T00:05:35.872Z,4.35
2023-01-25T00:06:38.569Z,4.34
2023-01-25T00:07:41.232Z,4.35
2023-01-25T00:08:43.970Z,4.35
2023-01-25T00:09:46.756Z,4.35
2023-01-25T00:10:49.614Z,4.37
2023-01-25T00:11:52.269Z,4.37
2023-01-25T00:12:55.242Z,4.37
2023-01-25T00:13:57.932Z,4.38
2023-01-25T00:15:00.622Z,4.38
2023-01-25T00:16:03.704Z,4.38
2023-01-25T00:17:06.516Z,4.39
2023-01-25T00:18:09.205Z,4.4
2023-01-25T00:19:11.857Z,4.41
2023-01-25T00:20:14.539Z,4.41
2023-01-25T00:21:17.234Z,4.4
2023-01-25T00:22:20.055Z,4.39
2023-01-25T00:23:22.661Z,4.38
2023-01-25T00:24:25.566Z,4.34
2023-01-25T00:25:28.421Z,4.3
2023-01-25T00:26:31.102Z,4.28
2023-01-25T00:27:33.739Z,4.28
2023-01-25T00:28:36.508Z,4.29
2023-01-25T00:29:39.946Z,4.32
2023-01-25T00:30:42.680Z,4.34
2023-01-25T00:31:45.738Z,4.33
2023-01-25T00:32:48.895Z,4.33
2023-01-25T00:33:51.697Z,4.33
2023-01-25T00:34:54.361Z,4.35
2023-01-25T00:35:57.143Z,4.32
2023-01-25T00:36:59.823Z,4.27
2023-01-25T00:38:02.466Z,4.27
2023-01-25T00:39:05.109Z,4.28
2023-01-25T00:40:07.861Z,4.28
2023-01-25T00:41:10.469Z,4.29
2023-01-25T00:42:13.145Z,4.29
2023-01-25T00:43:15.882Z,4.29
2023-01-25T00:44:18.596Z,4.32
2023-01-25T00:45:21.840Z,4.32
2023-01-25T00:46:24.694Z,4.31
2023-01-25T00:47:27.387Z,4.3
2023-01-25T00:48:30.519Z,4.3
2023-01-25T00:49:33.120Z,4.34
2023-01-25T00:50:35.749Z,4.38
2023-01-25T00:51:38.413Z,4.41
2023-01-25T00:52:41.092Z,4.43
2023-01-25T00:53:44.354Z,4.45
2023-01-25T00:54:46.947Z,4.46
2023-01-25T00:55:49.609Z,4.46
2023-01-25T00:56:52.242Z,4.47
2023-01-25T00:57:54.951Z,4.44
2023-01-25T00:58:57.673Z,4.43
2023-01-25T01:00:00.442Z,4.43
2023-01-25T01:01:03.251Z,4.42
2023-01-25T01:02:06.228Z,4.4
2023-01-25T01:03:08.909Z,4.38
2023-01-25T01:04:11.596Z,4.36
2023-01-25T01:05:14.500Z,4.38
2023-01-25T01:06:17.313Z,4.41
2023-01-25T01:07:19.960Z,4.43
2023-01-25T01:08:22.702Z,4.43
2023-01-25T01:09:25.375Z,4.42
2023-01-25T01:10:28.048Z,4.42
2023-01-25T01:11:30.707Z,4.44
2023-01-25T01:12:33.315Z,4.45
2023-01-25T01:13:35.964Z,4.48
2023-01-25T01:14:38.901Z,4.49
2023-01-25T01:15:41.636Z,4.47
2023-01-25T01:16:44.536Z,4.45
2023-01-25T01:17:47.261Z,4.46
2023-01-25T01:18:49.931Z,4.48
2023-01-25T01:19:52.608Z,4.5
2023-01-25T01:20:55.257Z,4.51
2023-01-25T01:21:57.926Z,4.51
2023-01-25T01:23:00.599Z,4.52
2023-01-25T01:24:03.554Z,4.53
2023-01-25T01:25:07.561Z,4.53
2023-01-25T01:26:10.455Z,4.51
2023-01-25T01:27:13.108Z,4.52
2023-01-25T01:28:15.773Z,4.54
2023-01-25T01:29:18.410Z,4.57
2023-01-25T01:30:21.260Z,4.58
2023-01-25T01:31:24.521Z,4.6
2023-01-25T01:32:27.808Z,4.62
2023-01-25T01:33:30.694Z,4.64
2023-01-25T01:34:33.513Z,4.65
2023-01-25T01:35:36.142Z,4.64
2023-01-25T01:36:38.779Z,4.64
2023-01-25T01:37:41.433Z,4.64
2023-01-25T01:38:44.078Z,4.64
2023-01-25T01:39:47.325Z,4.67
2023-01-25T01:40:49.978Z,4.65
2023-01-25T01:41:52.680Z,4.64
2023-01-25T01:42:55.263Z,4.63
2023-01-25T01:43:58.558Z,4.64
2023-01-25T01:45:01.253Z,4.6
2023-01-25T01:46:04.790Z,4.6
2023-01-25T01:47:07.618Z,4.59
2023-01-25T01:48:10.869Z,4.59
2023-01-25T01:49:13.529Z,4.61
2023-01-25T01:50:16.204Z,4.61
2023-01-25T01:51:20.039Z,4.61
2023-01-25T01:52:22.680Z,4.62
2023-01-25T01:53:25.478Z,4.61
2023-01-25T01:54:28.135Z,4.64
2023-01-25T01:55:30.802Z,4.63
2023-01-25T01:56:33.603Z,4.61
2023-01-25T01:57:36.448Z,4.61
2023-01-25T01:58:39.112Z,4.61
2023-01-25T01:59:41.788Z,4.62
2023-01-25T02:00:44.522Z,4.63
2023-01-25T02:01:47.237Z,4.63
2023-01-25T02:02:50.387Z,4.64
2023-01-25T02:03:53.153Z,4.63
2023-01-25T02:04:55.795Z,4.64
2023-01-25T02:05:58.730Z,4.65
2023-01-25T02:07:01.406Z,4.65
2023-01-25T02:08:04.156Z,4.66
2023-01-25T02:09:06.781Z,4.66
2023-01-25T02:10:09.458Z,4.67
2023-01-25T02:11:12.161Z,4.67
2023-01-25T02:12:14.810Z,4.67
2023-01-25T02:13:17.473Z,4.66
2023-01-25T02:14:20.173Z,4.66
2023-01-25T02:15:22.850Z,4.66
2023-01-25T02:16:25.655Z,4.66
2023-01-25T02:17:28.367Z,4.66
2023-01-25T02:18:31.191Z,4.63
2023-01-25T02:19:33.875Z,4.64
2023-01-25T02:20:36.508Z,4.63
2023-01-25T02:21:39.152Z,4.63
2023-01-25T02:22:41.855Z,4.64
2023-01-25T02:23:44.758Z,4.65
2023-01-25T02:24:47.520Z,4.65
2023-01-25T02:25:50.177Z,4.65
2023-01-25T02:26:52.798Z,4.65
2023-01-25T02:27:55.459Z,4.66
2023-01-25T02:28:58.140Z,4.66
2023-01-25T02:30:00.849Z,4.66
2023-01-25T02:31:03.782Z,4.68
2023-01-25T02:32:06.892Z,4.66
2023-01-25T02:33:09.999Z,4.67
2023-01-25T02:34:12.694Z,4.68
2023-01-25T02:35:15.329Z,4.65
2023-01-25T02:36:17.967Z,4.65
2023-01-25T02:37:20.614Z,4.66
2023-01-25T02:38:23.295Z,4.66
2023-01-25T02:39:25.959Z,4.65
2023-01-25T02:40:28.636Z,4.65
2023-01-25T02:41:31.296Z,4.66
2023-01-25T02:42:33.910Z,4.68
2023-01-25T02:43:37.040Z,4.68
2023-01-25T02:44:39.846Z,4.67
2023-01-25T02:45:42.487Z,4.67
2023-01-25T02:46:45.755Z,4.67
2023-01-25T02:47:48.418Z,4.65
2023-01-25T02:48:51.115Z,4.66
2023-01-25T02:49:53.824Z,4.66
2023-01-25T02:50:56.552Z,4.66
2023-01-25T02:51:59.404Z,4.67
2023-01-25T02:53:02.132Z,4.67
2023-01-25T02:54:04.814Z,4.66
2023-01-25T02:55:08.459Z,4.66
2023-01-25T02:56:11.733Z,4.66
2023-01-25T02:57:14.389Z,4.66
2023-01-25T02:58:17.076Z,4.64
2023-01-25T02:59:19.736Z,4.64
2023-01-25T03:00:22.404Z,4.63
2023-01-25T03:01:25.322Z,4.61
2023-01-25T03:02:28.173Z,4.56
2023-01-25T03:03:31.080Z,4.53
2023-01-25T03:04:34.298Z,4.52
2023-01-25T03:05:37.619Z,4.49
2023-01-25T03:06:40.258Z,4.48
2023-01-25T03:07:43.143Z,4.48
2023-01-25T03:08:45.806Z,4.47
2023-01-25T03:09:48.498Z,4.45
2023-01-25T03:10:51.152Z,4.41
2023-01-25T03:11:53.808Z,4.4
2023-01-25T03:12:56.469Z,4.41
2023-01-25T03:13:59.107Z,4.41
2023-01-25T03:15:01.793Z,4.41
2023-01-25T03:16:04.660Z,4.44
2023-01-25T03:17:07.610Z,4.45
2023-01-25T03:18:10.277Z,4.47
2023-01-25T03:19:12.933Z,4.49
2023-01-25T03:20:15.616Z,4.51
2023-01-25T03:21:18.405Z,4.51
2023-01-25T03:22:21.091Z,4.54
2023-01-25T03:23:23.747Z,4.53
2023-01-25T03:24:26.580Z,4.55
2023-01-25T03:25:29.320Z,4.57
2023-01-25T03:26:32.017Z,4.59
2023-01-25T03:27:34.689Z,4.6
2023-01-25T03:28:37.411Z,4.61
2023-01-25T03:29:40.117Z,4.61
2023-01-25T03:30:42.763Z,4.61
2023-01-25T03:31:45.719Z,4.61
2023-01-25T03:32:48.616Z,4.61
2023-01-25T03:33:51.281Z,4.61
2023-01-25T03:34:54.158Z,4.62
2023-01-25T03:35:57.629Z,4.64
2023-01-25T03:37:00.493Z,4.66
2023-01-25T03:38:03.166Z,4.67
2023-01-25T03:39:05.787Z,4.69
2023-01-25T03:40:08.457Z,4.68
2023-01-25T03:41:11.139Z,4.67
2023-01-25T03:42:13.819Z,4.67
2023-01-25T03:43:16.506Z,4.66
2023-01-25T03:44:19.189Z,4.65
2023-01-25T03:45:21.843Z,4.64
2023-01-25T03:46:24.487Z,4.63
2023-01-25T03:47:27.174Z,4.62
2023-01-25T03:48:29.868Z,4.62
2023-01-25T03:49:32.525Z,4.6
2023-01-25T03:50:35.222Z,4.6
2023-01-25T03:51:38.072Z,4.62
2023-01-25T03:52:41.004Z,4.64
2023-01-25T03:53:43.749Z,4.62
2023-01-25T03:54:46.436Z,4.61
2023-01-25T03:55:51.257Z,4.63
2023-01-25T03:56:53.749Z,4.62
2023-01-25T03:57:56.382Z,4.62
2023-01-25T03:58:59.053Z,4.59
2023-01-25T04:00:01.775Z,4.58
2023-01-25T04:01:04.826Z,4.56
2023-01-25T04:02:08.205Z,4.54
2023-01-25T04:03:10.977Z,4.5
2023-01-25T04:04:13.640Z,4.48
2023-01-25T04:05:16.310Z,4.48
2023-01-25T04:06:18.980Z,4.48
2023-01-25T04:07:21.646Z,4.47
2023-01-25T04:08:24.430Z,4.49
2023-01-25T04:09:27.061Z,4.48
2023-01-25T04:10:29.708Z,4.5
2023-01-25T04:11:32.346Z,4.5
2023-01-25T04:12:34.992Z,4.51
2023-01-25T04:13:37.713Z,4.51
2023-01-25T04:14:45.285Z,4.49
2023-01-25T04:15:47.842Z,4.47
2023-01-25T04:16:50.759Z,4.46
2023-01-25T04:17:53.475Z,4.46
2023-01-25T04:18:56.145Z,4.44
2023-01-25T04:19:58.765Z,4.46
2023-01-25T04:21:01.378Z,4.46
2023-01-25T04:22:04.085Z,4.46
2023-01-25T04:23:07.130Z,4.45
2023-01-25T04:24:10.037Z,4.43
2023-01-25T04:25:12.803Z,4.43
2023-01-25T04:26:15.470Z,4.42
2023-01-25T04:27:18.181Z,4.42
2023-01-25T04:28:20.862Z,4.41
2023-01-25T04:29:40.874Z,4.4
2023-01-25T04:30:43.967Z,4.4
2023-01-25T04:31:46.870Z,4.39
2023-01-25T04:32:50.176Z,4.39
2023-01-25T04:33:53.071Z,4.4
2023-01-25T04:34:55.725Z,4.4
2023-01-25T04:35:58.396Z,4.4
2023-01-25T04:37:01.138Z,4.4
2023-01-25T04:38:03.791Z,4.41
2023-01-25T04:39:06.533Z,4.4
2023-01-25T04:40:09.797Z,4.41
2023-01-25T04:41:12.444Z,4.4
2023-01-25T04:42:15.074Z,4.4
2023-01-25T04:43:17.753Z,4.4
2023-01-25T04:44:20.577Z,4.4
2023-01-25T04:45:23.437Z,4.4
2023-01-25T04:46:26.127Z,4.39
2023-01-25T04:47:28.823Z,4.4
2023-01-25T04:48:31.453Z,4.39
2023-01-25T04:49:34.105Z,4.39
2023-01-25T04:50:36.790Z,4.39
2023-01-25T04:51:39.439Z,4.38
2023-01-25T04:52:42.101Z,4.39
2023-01-25T04:53:44.761Z,4.38
2023-01-25T04:54:47.460Z,4.36
2023-01-25T04:55:50.222Z,4.31
2023-01-25T04:56:52.880Z,4.28
2023-01-25T04:57:55.516Z,4.23
2023-01-25T04:58:59.161Z,4.21
2023-01-25T05:00:02.468Z,4.21
2023-01-25T05:01:05.325Z,4.21
2023-01-25T05:02:08.508Z,4.21
2023-01-25T05:03:11.215Z,4.2
2023-01-25T05:04:14.459Z,4.19
2023-01-25T05:05:17.075Z,4.17
2023-01-25T05:06:20.298Z,4.16
2023-01-25T05:07:22.933Z,4.16
2023-01-25T05:08:25.601Z,4.15
2023-01-25T05:09:28.274Z,4.16
2023-01-25T05:10:30.939Z,4.17
2023-01-25T05:11:34.229Z,4.18
2023-01-25T05:12:36.888Z,4.18
2023-01-25T05:13:39.569Z,4.2
2023-01-25T05:14:42.327Z,4.19
2023-01-25T05:15:45.005Z,4.2
2023-01-25T05:16:47.935Z,4.2
2023-01-25T05:17:50.566Z,4.2
2023-01-25T05:18:53.255Z,4.19
2023-01-25T05:19:55.960Z,4.18
2023-01-25T05:20:58.607Z,4.19
2023-01-25T05:22:01.306Z,4.19
2023-01-25T05:23:03.985Z,4.19
2023-01-25T05:24:07.950Z,4.2
2023-01-25T05:25:11.897Z,4.17
2023-01-25T05:26:14.651Z,4.14
2023-01-25T05:27:17.376Z,4.11
2023-01-25T05:28:20.014Z,4.08
2023-01-25T05:29:22.653Z,4.06
2023-01-25T05:30:25.573Z,4.05
2023-01-25T05:31:28.269Z,4.05
2023-01-25T05:32:30.992Z,4.04
2023-01-25T05:33:33.635Z,4.05
2023-01-25T05:34:36.289Z,4.04
2023-01-25T05:35:38.946Z,4.06
2023-01-25T05:36:41.592Z,4.05
2023-01-25T05:37:44.302Z,4.06
2023-01-25T05:38:47.030Z,4.04
2023-01-25T05:39:49.696Z,4.02
2023-01-25T05:40:52.318Z,3.99
2023-01-25T05:41:54.999Z,3.97
2023-01-25T05:42:57.760Z,3.94
2023-01-25T05:44:00.412Z,3.91
2023-01-25T05:45:03.308Z,3.92
2023-01-25T05:46:06.089Z,3.9
2023-01-25T05:47:08.825Z,3.89
2023-01-25T05:48:11.708Z,3.88
2023-01-25T05:49:14.404Z,3.87
2023-01-25T05:50:17.613Z,3.87
2023-01-25T05:51:20.237Z,3.86
2023-01-25T05:52:23.890Z,3.86
2023-01-25T05:53:26.666Z,3.86
2023-01-25T05:54:29.386Z,3.87
2023-01-25T05:55:32.060Z,3.85
2023-01-25T05:56:34.727Z,3.84
2023-01-25T05:57:37.351Z,3.81
2023-01-25T05:58:40.110Z,3.81
2023-01-25T05:59:42.802Z,3.82
2023-01-25T06:00:45.468Z,3.8
2023-01-25T06:01:48.089Z,3.77
2023-01-25T06:02:51.232Z,3.77
2023-01-25T06:03:54.109Z,3.76
2023-01-25T06:04:56.944Z,3.75
2023-01-25T06:05:59.588Z,3.78
2023-01-25T06:07:02.248Z,3.79
2023-01-25T06:08:04.915Z,3.82
2023-01-25T06:09:07.588Z,3.86
2023-01-25T06:10:10.276Z,3.87
2023-01-25T06:11:12.956Z,3.88
2023-01-25T06:12:15.596Z,3.87
2023-01-25T06:13:18.871Z,3.86
2023-01-25T06:14:21.797Z,3.84
2023-01-25T06:15:24.494Z,3.82
2023-01-25T06:16:27.117Z,3.83
2023-01-25T06:17:29.792Z,3.84
2023-01-25T06:18:32.442Z,3.86
2023-01-25T06:19:35.103Z,3.88
2023-01-25T06:20:37.791Z,3.88
2023-01-25T06:21:40.665Z,3.89
2023-01-25T06:22:44.939Z,3.88
2023-01-25T06:23:47.660Z,3.88
2023-01-25T06:24:50.410Z,3.89
2023-01-25T06:25:54.501Z,3.89
2023-01-25T06:26:57.035Z,3.88
2023-01-25T06:27:59.699Z,3.87
2023-01-25T06:29:02.599Z,3.89
2023-01-25T06:30:05.375Z,3.89
2023-01-25T06:31:08.176Z,3.9
2023-01-25T06:32:11.122Z,3.93
2023-01-25T06:33:13.765Z,3.94
2023-01-25T06:34:16.391Z,3.95
2023-01-25T06:35:19.070Z,3.94
2023-01-25T06:36:21.999Z,3.92
2023-01-25T06:37:24.631Z,3.91
2023-01-25T06:38:27.311Z,3.91
2023-01-25T06:39:29.982Z,3.92
2023-01-25T06:40:32.959Z,3.93
2023-01-25T06:41:35.601Z,3.91
2023-01-25T06:42:38.231Z,3.91
2023-01-25T06:43:41.079Z,3.91
2023-01-25T06:44:43.723Z,3.92
2023-01-25T06:45:46.488Z,3.92
2023-01-25T06:46:49.349Z,3.92
2023-01-25T06:47:52.069Z,3.9
2023-01-25T06:48:54.726Z,3.91
2023-01-25T06:49:57.403Z,3.92
2023-01-25T06:51:00.088Z,3.92
2023-01-25T06:52:02.824Z,3.92
2023-01-25T06:53:05.495Z,3.91
2023-01-25T06:54:08.213Z,3.9
2023-01-25T06:55:11.961Z,3.91
2023-01-25T06:56:14.769Z,3.94
2023-01-25T06:57:17.412Z,3.95
2023-01-25T06:58:20.076Z,3.96
2023-01-25T06:59:22.750Z,3.97
2023-01-25T07:00:25.482Z,3.97
2023-01-25T07:01:28.353Z,3.99
2023-01-25T07:02:31.205Z,4
2023-01-25T07:03:33.905Z,3.98
2023-01-25T07:04:36.878Z,3.97
2023-01-25T07:05:39.522Z,3.96
2023-01-25T07:06:42.163Z,3.96
2023-01-25T07:07:44.855Z,3.95
2023-01-25T07:08:47.585Z,3.95
2023-01-25T07:09:50.204Z,3.96
2023-01-25T07:10:52.830Z,3.96
2023-01-25T07:11:55.366Z,3.96
2023-01-25T07:12:58.000Z,3.96
2023-01-25T07:14:00.684Z,3.96
2023-01-25T07:15:03.343Z,3.95
2023-01-25T07:16:05.988Z,3.94
2023-01-25T07:17:08.683Z,3.93
2023-01-25T07:18:16.964Z,3.91
2023-01-25T07:19:19.256Z,3.91
2023-01-25T07:20:21.893Z,3.94
2023-01-25T07:21:24.510Z,3.95
2023-01-25T07:22:27.149Z,3.96
2023-01-25T07:23:29.857Z,3.96
2023-01-25T07:24:32.672Z,3.95
2023-01-25T07:25:35.306Z,3.93
2023-01-25T07:26:37.962Z,3.93
2023-01-25T07:27:40.624Z,3.9
2023-01-25T07:28:43.279Z,3.87
2023-01-25T07:29:46.170Z,3.86
2023-01-25T07:30:48.779Z,3.85
2023-01-25T07:31:51.709Z,3.87
2023-01-25T07:32:54.530Z,3.88
2023-01-25T07:33:57.750Z,3.93
2023-01-25T07:35:00.392Z,3.92
2023-01-25T07:36:03.035Z,3.93
2023-01-25T07:37:05.654Z,3.94
2023-01-25T07:38:08.247Z,3.96
2023-01-25T07:39:10.929Z,3.98
2023-01-25T07:40:13.586Z,4
2023-01-25T07:41:16.303Z,4.03
2023-01-25T07:42:19.079Z,4.03
2023-01-25T07:43:21.947Z,4.01
2023-01-25T07:44:24.597Z,4.03
2023-01-25T07:45:27.297Z,4
2023-01-25T07:46:30.175Z,3.99
2023-01-25T07:47:32.834Z,4.01
2023-01-25T07:48:35.878Z,4.01
2023-01-25T07:49:38.537Z,4.01
2023-01-25T07:50:41.163Z,4.01
2023-01-25T07:51:43.902Z,4.04
2023-01-25T07:52:46.598Z,4.06
2023-01-25T07:53:49.930Z,4.09
2023-01-25T07:54:52.564Z,4.11
2023-01-25T07:55:55.218Z,4.13
2023-01-25T07:56:57.980Z,4.14
2023-01-25T07:58:01.382Z,4.09
2023-01-25T07:59:04.042Z,4.08
2023-01-25T08:00:06.690Z,4.09
2023-01-25T08:01:09.366Z,4.1
2023-01-25T08:02:12.008Z,4.12
2023-01-25T08:03:14.719Z,4.13
2023-01-25T08:04:17.452Z,4.11
2023-01-25T08:05:20.091Z,4.11
2023-01-25T08:06:22.752Z,4.13
2023-01-25T08:07:25.640Z,4.13
2023-01-25T08:08:28.360Z,4.15
2023-01-25T08:09:31.029Z,4.17
2023-01-25T08:10:33.657Z,4.16
2023-01-25T08:11:36.371Z,4.15
2023-01-25T08:12:39.143Z,4.15
2023-01-25T08:13:41.886Z,4.14
2023-01-25T08:14:44.585Z,4.11
2023-01-25T08:15:47.247Z,4.11
2023-01-25T08:16:49.867Z,4.11
2023-01-25T08:17:52.863Z,4.14
2023-01-25T08:18:55.513Z,4.18
2023-01-25T08:19:58.252Z,4.22
2023-01-25T08:21:00.993Z,4.24
2023-01-25T08:22:03.612Z,4.28
2023-01-25T08:23:06.966Z,4.29
2023-01-25T08:24:09.991Z,4.3
2023-01-25T08:25:12.779Z,4.34
2023-01-25T08:26:15.463Z,4.37
2023-01-25T08:27:18.240Z,4.38
2023-01-25T08:28:20.892Z,4.39
2023-01-25T08:29:23.623Z,4.38
2023-01-25T08:30:26.280Z,4.38
2023-01-25T08:31:29.066Z,4.39
2023-01-25T08:32:32.030Z,4.37
2023-01-25T08:33:34.656Z,4.3
2023-01-25T08:34:37.420Z,4.28
2023-01-25T08:35:40.191Z,4.28
2023-01-25T08:36:42.861Z,4.28
2023-01-25T08:37:45.562Z,4.25
2023-01-25T08:38:48.250Z,4.23
2023-01-25T08:39:50.933Z,4.21
2023-01-25T08:40:53.647Z,4.2
2023-01-25T08:41:56.282Z,4.17
2023-01-25T08:42:59.114Z,4.15
2023-01-25T08:44:01.891Z,4.12
2023-01-25T08:45:04.607Z,4.08
2023-01-25T08:46:07.272Z,4.1
2023-01-25T08:47:10.040Z,4.08
2023-01-25T08:48:12.705Z,4.08
2023-01-25T08:49:15.387Z,4.08
2023-01-25T08:50:18.070Z,4.09
2023-01-25T08:51:20.831Z,4.12
2023-01-25T08:52:23.568Z,4.12
2023-01-25T08:53:26.283Z,4.12
2023-01-25T08:54:28.949Z,4.1
2023-01-25T08:55:31.784Z,4.07
2023-01-25T08:56:34.439Z,4.08
2023-01-25T08:57:37.059Z,4.1
2023-01-25T08:58:39.713Z,4.15
2023-01-25T08:59:42.382Z,4.19
2023-01-25T09:00:45.009Z,4.23
2023-01-25T09:01:47.684Z,4.29
2023-01-25T09:02:50.355Z,4.32
2023-01-25T09:03:53.138Z,4.35
2023-01-25T09:04:55.899Z,4.33
2023-01-25T09:05:58.627Z,4.31
2023-01-25T09:07:01.388Z,4.29
2023-01-25T09:08:06.948Z,4.26
2023-01-25T09:09:10.305Z,4.26
2023-01-25T09:10:12.895Z,4.26
2023-01-25T09:11:15.605Z,4.22
2023-01-25T09:12:18.334Z,4.22
2023-01-25T09:13:21.618Z,4.17
2023-01-25T09:14:24.261Z,4.11
2023-01-25T09:15:26.869Z,4.11
2023-01-25T09:16:29.759Z,4.13
2023-01-25T09:17:32.368Z,4.13
2023-01-25T09:18:35.019Z,4.11
2023-01-25T09:19:37.660Z,4.13
2023-01-25T09:20:40.331Z,4.15
2023-01-25T09:21:42.992Z,4.17
2023-01-25T09:22:45.717Z,4.18
2023-01-25T09:24:07.167Z,4.16
2023-01-25T09:25:09.960Z,4.14
2023-01-25T09:26:12.483Z,4.15
2023-01-25T09:27:15.124Z,4.2
2023-01-25T09:28:17.746Z,4.22
2023-01-25T09:29:20.393Z,4.23
2023-01-25T09:30:44.964Z,4.26
2023-01-25T09:31:45.467Z,4.23
2023-01-25T09:32:48.605Z,4.17
2023-01-25T09:33:51.440Z,4.18
2023-01-25T09:34:54.055Z,4.2
2023-01-25T09:35:57.292Z,4.25
2023-01-25T09:37:01.056Z,4.3
2023-01-25T09:38:03.706Z,4.31
2023-01-25T09:39:06.413Z,4.33
2023-01-25T09:40:10.013Z,4.36
2023-01-25T09:41:13.061Z,4.35
2023-01-25T09:42:15.965Z,4.35
2023-01-25T09:43:18.614Z,4.33
2023-01-25T09:44:21.293Z,4.3
2023-01-25T09:45:26.769Z,4.31
2023-01-25T09:46:29.461Z,4.35
2023-01-25T09:47:32.209Z,4.34
2023-01-25T09:48:34.836Z,4.34
2023-01-25T09:49:37.524Z,4.36
2023-01-25T09:50:40.219Z,4.35
2023-01-25T09:51:42.888Z,4.35
2023-01-25T09:52:45.648Z,4.34
2023-01-25T09:53:48.357Z,4.34
2023-01-25T09:54:51.001Z,4.35
2023-01-25T09:55:53.910Z,4.39
2023-01-25T09:56:56.582Z,4.4
2023-01-25T09:57:59.285Z,4.38
2023-01-25T09:59:02.132Z,4.39
2023-01-25T10:00:08.763Z,4.39
2023-01-25T10:01:16.654Z,4.39
2023-01-25T10:02:24.241Z,4.4
2023-01-25T10:03:27.146Z,4.39
2023-01-25T10:04:29.780Z,4.41
2023-01-25T10:05:32.629Z,4.42
2023-01-25T10:06:35.560Z,4.44
2023-01-25T10:07:38.696Z,4.43
2023-01-25T10:08:41.379Z,4.47
2023-01-25T10:09:44.112Z,4.5
2023-01-25T10:10:46.799Z,4.5
2023-01-25T10:11:49.578Z,4.48
2023-01-25T10:12:52.199Z,4.5
2023-01-25T10:13:54.836Z,4.54
2023-01-25T10:14:57.489Z,4.56
2023-01-25T10:16:00.273Z,4.6
2023-01-25T10:17:03.001Z,4.62
2023-01-25T10:18:05.669Z,4.64
2023-01-25T10:19:08.366Z,4.64
2023-01-25T10:20:12.351Z,4.63
2023-01-25T10:21:14.882Z,4.67
2023-01-25T10:22:17.542Z,4.71
2023-01-25T10:23:20.179Z,4.72
2023-01-25T10:24:23.164Z,4.77
2023-01-25T10:25:25.980Z,4.83
2023-01-25T10:26:28.652Z,4.87
2023-01-25T10:27:31.950Z,4.91
2023-01-25T10:28:34.578Z,4.95
2023-01-25T10:29:37.277Z,4.99
2023-01-25T10:30:40.021Z,5.03
2023-01-25T10:31:42.987Z,5.09
2023-01-25T10:32:56.369Z,5.17
2023-01-25T10:33:58.772Z,5.21
2023-01-25T10:35:01.434Z,5.22
2023-01-25T10:36:04.094Z,5.21
2023-01-25T10:37:09.454Z,5.24
2023-01-25T10:38:11.935Z,5.23
2023-01-25T10:39:14.562Z,5.21
2023-01-25T10:40:17.525Z,5.23
2023-01-25T10:41:20.287Z,5.24
2023-01-25T10:42:22.978Z,5.2
2023-01-25T10:43:25.636Z,5.22
2023-01-25T10:44:28.289Z,5.25
2023-01-25T10:45:30.985Z,5.27
2023-01-25T10:46:33.801Z,5.24
2023-01-25T10:47:36.462Z,5.25
2023-01-25T10:48:39.147Z,5.24
2023-01-25T10:49:41.841Z,5.16
2023-01-25T10:50:44.507Z,5.14
2023-01-25T10:51:47.199Z,5.09
2023-01-25T10:52:49.796Z,5.1
2023-01-25T10:53:52.470Z,5.14
2023-01-25T10:54:55.091Z,5.14
2023-01-25T10:55:57.811Z,5.09
2023-01-25T10:57:00.537Z,5.06
2023-01-25T10:58:03.805Z,5.07
2023-01-25T10:59:06.465Z,5.08
2023-01-25T11:00:09.138Z,5.07
2023-01-25T11:01:12.070Z,5.07
2023-01-25T11:02:14.693Z,5.06
2023-01-25T11:03:17.351Z,5.07
2023-01-25T11:04:19.988Z,5.06
2023-01-25T11:05:22.626Z,5.07
2023-01-25T11:06:25.322Z,5.11
2023-01-25T11:07:27.968Z,5.12
2023-01-25T11:08:30.631Z,5.09
2023-01-25T11:09:33.421Z,5.08
2023-01-25T11:10:36.377Z,5.08
2023-01-25T11:11:41.756Z,5.09
2023-01-25T11:12:44.303Z,5.1
2023-01-25T11:13:46.945Z,5.13
2023-01-25T11:14:49.606Z,5.17
2023-01-25T11:15:52.453Z,5.19
2023-01-25T11:16:55.177Z,5.19
2023-01-25T11:17:58.003Z,5.21
2023-01-25T11:19:00.674Z,5.22
2023-01-25T11:20:03.742Z,5.22
2023-01-25T11:21:06.350Z,5.24
2023-01-25T11:22:09.034Z,5.24
2023-01-25T11:23:11.733Z,5.26
2023-01-25T11:24:14.563Z,5.28
2023-01-25T11:25:17.978Z,5.28
2023-01-25T11:26:20.615Z,5.3
2023-01-25T11:27:23.326Z,5.3
2023-01-25T11:28:26.098Z,5.32
2023-01-25T11:29:28.737Z,5.33
2023-01-25T11:30:31.419Z,5.36
2023-01-25T11:31:34.849Z,5.36
2023-01-25T11:32:37.611Z,5.38
2023-01-25T11:33:40.287Z,5.42
2023-01-25T11:34:43.806Z,5.44
2023-01-25T11:35:46.482Z,5.47
2023-01-25T11:36:49.171Z,5.48
2023-01-25T11:37:51.805Z,5.46
2023-01-25T11:38:54.465Z,5.47
2023-01-25T11:39:57.202Z,5.46
2023-01-25T11:40:59.889Z,5.47
2023-01-25T11:42:02.566Z,5.49
2023-01-25T11:43:05.406Z,5.52
2023-01-25T11:44:08.192Z,5.54
2023-01-25T11:45:10.874Z,5.57
2023-01-25T11:46:13.620Z,5.56
2023-01-25T11:47:16.410Z,5.52
2023-01-25T11:48:19.133Z,5.49
2023-01-25T11:49:22.396Z,5.45
2023-01-25T11:50:25.045Z,5.43
2023-01-25T11:51:27.765Z,5.41
2023-01-25T11:52:30.453Z,5.43
2023-01-25T11:53:33.159Z,5.43
2023-01-25T11:54:35.792Z,5.45
2023-01-25T11:55:38.467Z,5.48
2023-01-25T11:56:41.209Z,5.46
2023-01-25T11:57:45.388Z,5.48
2023-01-25T11:58:47.933Z,5.48
2023-01-25T11:59:50.721Z,5.5
2023-01-25T12:00:53.388Z,5.54
2023-01-25T12:01:56.035Z,5.55
2023-01-25T12:02:59.016Z,5.58
2023-01-25T12:04:01.923Z,5.58
2023-01-25T12:05:21.414Z,5.61
2023-01-25T12:06:24.024Z,5.62
2023-01-25T12:07:26.651Z,5.64
2023-01-25T12:08:33.161Z,5.63
2023-01-25T12:09:35.503Z,5.64
2023-01-25T12:10:38.377Z,5.62
2023-01-25T12:11:41.017Z,5.64
2023-01-25T12:12:43.657Z,5.66
2023-01-25T12:13:46.421Z,5.66
2023-01-25T12:14:49.097Z,5.64
2023-01-25T12:15:51.891Z,5.63
2023-01-25T12:16:54.658Z,5.64
2023-01-25T12:17:57.323Z,5.65
2023-01-25T12:19:00.167Z,5.68
2023-01-25T12:20:02.820Z,5.66
2023-01-25T12:21:08.703Z,5.66
2023-01-25T12:22:13.196Z,5.66
2023-01-25T12:23:15.760Z,5.66
2023-01-25T12:24:18.563Z,5.64
2023-01-25T12:25:21.292Z,5.63
2023-01-25T12:26:23.945Z,5.61
2023-01-25T12:27:26.604Z,5.59
2023-01-25T12:28:29.312Z,5.59
2023-01-25T12:29:32.026Z,5.55
2023-01-25T12:30:34.861Z,5.5
2023-01-25T12:31:37.849Z,5.5
2023-01-25T12:32:40.545Z,5.5
2023-01-25T12:33:43.205Z,5.53
2023-01-25T12:34:45.848Z,5.55
2023-01-25T12:35:48.533Z,5.56
2023-01-25T12:36:51.175Z,5.56
2023-01-25T12:37:53.855Z,5.54
2023-01-25T12:38:56.488Z,5.5
2023-01-25T12:39:59.192Z,5.47
2023-01-25T12:41:01.874Z,5.44
2023-01-25T12:42:04.552Z,5.44
2023-01-25T12:43:07.192Z,5.48
2023-01-25T12:44:09.869Z,5.51
2023-01-25T12:45:12.492Z,5.55
2023-01-25T12:46:15.161Z,5.54
2023-01-25T12:47:17.890Z,5.54
2023-01-25T12:48:20.506Z,5.53
2023-01-25T12:49:23.205Z,5.54
2023-01-25T12:50:25.873Z,5.53
2023-01-25T12:51:28.541Z,5.57
2023-01-25T12:52:31.212Z,5.55
2023-01-25T12:53:33.882Z,5.54
2023-01-25T12:54:36.542Z,5.52
2023-01-25T12:55:39.182Z,5.45
2023-01-25T12:56:41.833Z,5.45
2023-01-25T12:57:44.555Z,5.47
2023-01-25T12:58:47.216Z,5.5
2023-01-25T12:59:49.861Z,5.51
2023-01-25T13:00:52.634Z,5.48
2023-01-25T13:01:55.516Z,5.47
2023-01-25T13:02:58.256Z,5.48
2023-01-25T13:04:00.899Z,5.48
2023-01-25T13:05:03.578Z,5.46
2023-01-25T13:06:06.285Z,5.42
2023-01-25T13:07:08.951Z,5.4
2023-01-25T13:08:30.960Z,5.41
2023-01-25T13:09:33.436Z,5.42
2023-01-25T13:10:36.024Z,5.38
2023-01-25T13:11:38.655Z,5.35
2023-01-25T13:12:41.356Z,5.34
2023-01-25T13:13:43.982Z,5.35
2023-01-25T13:14:46.621Z,5.36
2023-01-25T13:15:49.294Z,5.38
2023-01-25T13:17:10.025Z,5.41
2023-01-25T13:18:12.621Z,5.41
2023-01-25T13:19:15.251Z,5.37
2023-01-25T13:20:17.842Z,5.37
2023-01-25T13:21:20.527Z,5.39
2023-01-25T13:22:23.779Z,5.33
2023-01-25T13:23:26.405Z,5.34
2023-01-25T13:24:29.055Z,5.35
2023-01-25T13:25:31.734Z,5.37
2023-01-25T13:26:34.396Z,5.37
2023-01-25T13:27:37.114Z,5.36
2023-01-25T13:28:39.810Z,5.35
2023-01-25T13:29:42.433Z,5.34
2023-01-25T13:30:45.128Z,5.34
2023-01-25T13:31:54.196Z,5.34
2023-01-25T13:33:00.574Z,5.35
2023-01-25T13:34:03.303Z,5.37
2023-01-25T13:35:05.968Z,5.41
2023-01-25T13:36:08.616Z,5.42
2023-01-25T13:37:11.285Z,5.45
2023-01-25T13:38:13.967Z,5.46
2023-01-25T13:39:17.174Z,5.47
2023-01-25T13:40:19.821Z,5.46
2023-01-25T13:41:22.750Z,5.43
2023-01-25T13:42:26.039Z,5.41
2023-01-25T13:43:28.635Z,5.41
2023-01-25T13:44:31.295Z,5.37
2023-01-25T13:45:34.148Z,5.33
2023-01-25T13:46:36.878Z,5.31
2023-01-25T13:47:39.575Z,5.27
2023-01-25T13:48:42.274Z,5.28
2023-01-25T13:49:45.056Z,5.28
2023-01-25T13:50:47.818Z,5.3
2023-01-25T13:51:50.554Z,5.3
2023-01-25T13:52:53.238Z,5.28
2023-01-25T13:53:55.876Z,5.28
2023-01-25T13:54:58.585Z,5.33
2023-01-25T13:56:01.341Z,5.35
2023-01-25T13:57:04.459Z,5.37
2023-01-25T13:58:07.709Z,5.36
2023-01-25T13:59:10.660Z,5.31
2023-01-25T14:00:14.740Z,5.3
2023-01-25T14:01:18.076Z,5.27